Time;durP1;ratioP1;P1;durP2;ratioP2;P2;SDS_P1;SDS_P2;PMS_P1;PMS_P2;Temp;Humidity;BMP_temperature;BMP_pressure;BME280_temperature;BME280_humidity;BME280_pressure;Samples;Min_cycle;Max_cycle;Signal;HPM_P1;HPM_P2
2024/03/01 00:01:03;;;;;;;27.77;14.53;;;6.30;1.00;;;;;;5104524;28;20668;-77
2024/03/01 00:03:32;;;;;;;25.50;13.77;;;6.40;1.00;;;;;;5106518;28;20286;-77
2024/03/01 00:05:58;;;;;;;29.83;13.73;;;6.50;1.00;;;;;;5104003;28;20209;-77
2024/03/01 00:08:25;;;;;;;26.73;13.27;;;6.30;1.00;;;;;;5107517;28;20288;-77
2024/03/01 00:10:52;;;;;;;24.77;12.53;;;6.30;1.00;;;;;;5104819;28;20707;-77
2024/03/01 00:13:19;;;;;;;28.10;13.70;;;6.50;1.00;;;;;;5107993;28;20225;-77
2024/03/01 00:15:46;;;;;;;26.77;13.77;;;6.30;1.00;;;;;;5107864;28;20205;-77
2024/03/01 00:18:13;;;;;;;24.70;12.33;;;6.20;1.00;;;;;;5105283;28;20296;-78
2024/03/01 00:20:41;;;;;;;25.83;13.27;;;6.30;1.00;;;;;;5109923;28;20292;-77
2024/03/01 00:23:08;;;;;;;26.10;13.10;;;6.30;1.00;;;;;;5107751;28;20284;-77
2024/03/01 00:25:34;;;;;;;26.83;13.97;;;6.10;1.00;;;;;;5107069;28;20205;-77
2024/03/01 00:28:01;;;;;;;28.70;13.63;;;6.20;1.00;;;;;;5101058;28;20236;-77
2024/03/01 00:30:28;;;;;;;26.50;13.73;;;6.30;1.00;;;;;;5098357;28;20311;-77
2024/03/01 00:32:55;;;;;;;26.77;14.43;;;6.30;1.00;;;;;;5100518;28;20294;-77
2024/03/01 00:35:22;;;;;;;29.10;13.97;;;6.50;1.00;;;;;;5097219;28;20200;-77
2024/03/01 00:37:50;;;;;;;28.27;14.17;;;6.10;1.00;;;;;;5097922;28;20280;-77
2024/03/01 00:40:17;;;;;;;26.60;13.70;;;6.10;1.00;;;;;;5096609;28;20717;-77
2024/03/01 00:42:44;;;;;;;27.43;13.77;;;6.50;1.00;;;;;;5097871;28;20228;-78
2024/03/01 00:45:11;;;;;;;28.07;14.67;;;6.10;1.00;;;;;;5098996;28;20273;-78
2024/03/01 00:47:44;;;;;;;25.97;13.23;;;6.10;1.00;;;;;;5096837;28;20212;-77
2024/03/01 00:50:11;;;;;;;27.63;14.30;;;5.90;1.00;;;;;;5097298;28;20493;-77
2024/03/01 00:52:38;;;;;;;25.77;13.53;;;5.90;1.00;;;;;;5100625;27;20225;-77
2024/03/01 00:55:07;;;;;;;28.53;13.90;;;5.80;1.00;;;;;;5100575;28;20212;-77
2024/03/01 00:57:34;;;;;;;28.80;14.03;;;5.60;1.00;;;;;;5102581;28;20488;-77
2024/03/01 01:00:01;;;;;;;28.40;14.23;;;5.50;1.00;;;;;;5103919;28;20262;-77
2024/03/01 01:02:28;;;;;;;28.30;14.73;;;5.50;12.50;;;;;;5108754;28;20631;-77
2024/03/01 01:04:55;;;;;;;28.07;14.43;;;5.60;88.80;;;;;;5105290;28;20236;-77
2024/03/01 01:07:22;;;;;;;26.60;13.80;;;5.50;63.40;;;;;;5107577;28;20204;-78
2024/03/01 01:09:48;;;;;;;26.77;13.37;;;5.40;99.90;;;;;;5107459;28;20304;-77
2024/03/01 01:12:17;;;;;;;30.07;13.87;;;5.40;99.90;;;;;;5107336;28;20753;-77
2024/03/01 01:14:44;;;;;;;28.23;12.90;;;5.40;99.90;;;;;;5108828;28;20200;-77
2024/03/01 01:17:11;;;;;;;31.57;14.43;;;5.40;99.90;;;;;;5106830;28;20210;-77
2024/03/01 01:19:38;;;;;;;30.03;14.73;;;5.20;99.90;;;;;;5107853;28;20333;-78
2024/03/01 01:22:04;;;;;;;28.03;14.43;;;5.70;1.00;;;;;;5107130;28;20209;-77
2024/03/01 01:24:31;;;;;;;27.03;13.87;;;5.70;99.90;;;;;;5110244;28;20258;-77
2024/03/01 01:26:58;;;;;;;27.00;13.23;;;5.40;99.90;;;;;;5100996;28;20206;-77
2024/03/01 01:29:27;;;;;;;27.07;14.13;;;5.30;99.90;;;;;;5104745;28;20248;-77
2024/03/01 01:31:53;;;;;;;29.27;13.87;;;5.10;99.90;;;;;;5100073;28;20656;-77
2024/03/01 01:34:20;;;;;;;28.07;13.30;;;5.10;1.00;;;;;;5094685;28;20636;-77
2024/03/01 01:36:47;;;;;;;30.80;15.20;;;4.90;1.00;;;;;;5096115;28;20197;-77
2024/03/01 01:39:14;;;;;;;29.40;15.03;;;5.00;1.00;;;;;;5097210;28;20247;-77
2024/03/01 01:41:41;;;;;;;25.77;13.40;;;5.30;1.00;;;;;;5098683;28;20235;-77
2024/03/01 01:44:08;;;;;;;29.37;14.83;;;5.30;1.00;;;;;;5095211;28;20206;-77
2024/03/01 01:46:36;;;;;;;29.97;15.13;;;5.30;1.00;;;;;;5102112;28;20262;-77
2024/03/01 01:49:03;;;;;;;27.80;13.87;;;5.40;1.00;;;;;;5095089;28;20247;-77
2024/03/01 01:51:30;;;;;;;32.43;15.30;;;5.40;1.00;;;;;;5097759;28;20256;-77
2024/03/01 01:53:58;;;;;;;30.83;15.30;;;5.40;1.00;;;;;;5094791;28;20251;-77
2024/03/01 01:56:26;;;;;;;29.20;14.63;;;5.50;1.00;;;;;;5095668;28;20584;-77
2024/03/01 01:58:54;;;;;;;30.77;14.97;;;5.40;1.00;;;;;;5102214;28;20202;-78
2024/03/01 02:01:21;;;;;;;28.07;14.40;;;5.20;1.00;;;;;;5104664;28;20227;-77
2024/03/01 02:03:51;;;;;;;30.77;15.63;;;5.00;1.00;;;;;;5101175;28;20210;-77
2024/03/01 02:06:20;;;;;;;31.60;15.77;;;5.40;1.00;;;;;;5102793;28;20198;-77
2024/03/01 02:08:48;;;;;;;30.80;15.90;;;5.20;1.00;;;;;;5109305;28;20288;-77
2024/03/01 02:11:15;;;;;;;34.13;15.07;;;5.20;1.00;;;;;;5106932;28;20204;-77
2024/03/01 02:13:42;;;;;;;32.30;15.00;;;5.30;1.00;;;;;;5110361;28;20270;-77
2024/03/01 02:16:08;;;;;;;30.27;14.03;;;5.40;1.00;;;;;;5110801;28;20664;-77
2024/03/01 02:18:35;;;;;;;32.63;15.37;;;5.20;1.00;;;;;;5112743;28;20211;-77
2024/03/01 02:21:07;;;;;;;32.20;15.63;;;5.20;1.00;;;;;;5111410;28;20729;-77
2024/03/01 02:23:35;;;;;;;30.83;15.70;;;5.20;1.00;;;;;;5107544;28;20197;-77
2024/03/01 02:26:02;;;;;;;28.17;15.17;;;5.10;1.00;;;;;;5111432;28;20204;-77
2024/03/01 02:28:28;;;;;;;30.97;14.63;;;5.00;1.00;;;;;;5109669;28;20708;-77
2024/03/01 02:30:55;;;;;;;35.10;15.60;;;4.80;1.00;;;;;;5107348;28;20317;-77
2024/03/01 02:33:22;;;;;;;34.63;16.10;;;5.10;1.00;;;;;;5102580;28;20217;-77
2024/03/01 02:35:49;;;;;;;31.10;14.27;;;5.10;1.00;;;;;;5098127;28;20545;-78
2024/03/01 02:38:16;;;;;;;31.83;14.93;;;5.00;1.00;;;;;;5102278;28;20704;-77
2024/03/01 02:40:46;;;;;;;31.40;15.30;;;5.00;1.00;;;;;;5097712;28;20218;-77
2024/03/01 02:43:12;;;;;;;30.90;16.80;;;4.90;1.00;;;;;;5098594;28;20197;-77
2024/03/01 02:45:39;;;;;;;30.43;15.20;;;4.90;1.00;;;;;;5097638;28;20239;-78
2024/03/01 02:48:07;;;;;;;32.33;15.97;;;4.80;89.70;;;;;;5098369;28;20288;-77
2024/03/01 02:50:33;;;;;;;34.90;15.67;;;5.10;57.10;;;;;;5102440;28;20623;-77
2024/03/01 02:53:00;;;;;;;31.77;14.83;;;5.10;1.00;;;;;;5098277;28;20214;-78
2024/03/01 02:55:27;;;;;;;31.00;14.90;;;5.10;1.00;;;;;;5097244;28;20201;-77
2024/03/01 02:57:56;;;;;;;32.30;15.63;;;5.10;1.00;;;;;;5102857;28;20238;-77
2024/03/01 03:00:24;;;;;;;30.80;15.03;;;5.00;1.00;;;;;;5105308;28;20300;-77
2024/03/01 03:02:51;;;;;;;31.77;14.50;;;5.10;1.00;;;;;;5097612;28;20285;-77
2024/03/01 03:05:18;;;;;;;31.47;15.60;;;4.90;1.00;;;;;;5101213;28;20567;-77
2024/03/01 03:07:46;;;;;;;30.77;14.60;;;4.80;99.90;;;;;;5105105;28;20197;-77
2024/03/01 03:10:14;;;;;;;34.07;15.43;;;4.80;99.90;;;;;;5110604;28;20232;-77
2024/03/01 03:12:41;;;;;;;30.30;14.30;;;4.70;99.90;;;;;;5106990;28;20324;-77
2024/03/01 03:15:10;;;;;;;33.67;15.80;;;4.70;99.90;;;;;;5109646;28;20205;-77
2024/03/01 03:17:37;;;;;;;34.07;16.23;;;4.70;99.90;;;;;;5113149;28;20574;-77
2024/03/01 03:20:09;;;;;;;31.90;15.60;;;4.50;99.90;;;;;;5111447;28;20746;-77
2024/03/01 03:22:38;;;;;;;32.00;15.27;;;4.40;1.00;;;;;;5108696;28;20293;-77
2024/03/01 03:25:05;;;;;;;35.50;15.80;;;4.40;1.00;;;;;;5109133;28;20215;-77
2024/03/01 03:27:33;;;;;;;36.23;16.50;;;4.40;1.00;;;;;;5104530;28;20198;-77
2024/03/01 03:30:00;;;;;;;35.80;16.43;;;4.50;1.00;;;;;;5103493;28;20310;-77
2024/03/01 03:32:28;;;;;;;35.33;16.13;;;4.70;1.00;;;;;;5100528;28;20221;-77
2024/03/01 03:34:54;;;;;;;30.43;14.27;;;4.90;99.90;;;;;;5099511;28;20198;-77
2024/03/01 03:37:21;;;;;;;37.67;16.80;;;4.70;99.90;;;;;;5096748;28;20675;-77
2024/03/01 03:39:48;;;;;;;35.30;16.83;;;4.70;1.00;;;;;;5096877;28;20228;-77
2024/03/01 03:42:15;;;;;;;33.90;16.10;;;4.90;1.00;;;;;;5097507;28;20201;-77
2024/03/01 03:44:42;;;;;;;32.23;16.03;;;5.10;99.90;;;;;;5096520;28;20675;-77
2024/03/01 03:47:09;;;;;;;31.73;15.77;;;4.90;99.90;;;;;;5098553;28;20289;-77
2024/03/01 03:49:37;;;;;;;33.27;15.47;;;4.70;99.90;;;;;;5101164;28;20221;-77
2024/03/01 03:52:04;;;;;;;35.97;15.97;;;5.00;99.90;;;;;;5096193;28;20294;-77
2024/03/01 03:54:32;;;;;;;29.60;14.80;;;5.10;99.90;;;;;;5096719;28;20233;-78
2024/03/01 03:56:59;;;;;;;35.53;17.57;;;5.00;99.90;;;;;;5102346;28;20198;-77
2024/03/01 03:59:26;;;;;;;32.00;15.43;;;5.00;99.90;;;;;;5104714;28;20705;-77
2024/03/01 04:01:52;;;;;;;32.80;16.13;;;5.20;99.90;;;;;;5097303;28;20256;-77
2024/03/01 04:04:19;;;;;;;33.70;15.87;;;4.90;99.90;;;;;;5102393;28;20193;-77
2024/03/01 04:06:47;;;;;;;32.13;15.30;;;4.70;99.90;;;;;;5100064;28;20243;-77
2024/03/01 04:09:15;;;;;;;32.20;15.87;;;4.70;1.00;;;;;;5097223;28;20249;-78
2024/03/01 04:11:42;;;;;;;33.53;15.67;;;4.70;1.00;;;;;;5101409;28;20697;-77
2024/03/01 04:14:10;;;;;;;35.10;16.30;;;4.80;1.00;;;;;;5108871;28;20274;-77
2024/03/01 04:16:37;;;;;;;30.23;15.03;;;4.70;1.00;;;;;;5111183;28;20205;-77
2024/03/01 04:19:08;;;;;;;32.77;15.57;;;4.50;1.00;;;;;;5111918;28;20197;-77
2024/03/01 04:21:35;;;;;;;33.90;16.23;;;4.60;1.00;;;;;;5107055;28;20197;-77
2024/03/01 04:24:08;;;;;;;33.40;16.80;;;4.50;1.00;;;;;;5112432;28;20204;-76
2024/03/01 04:26:35;;;;;;;34.87;15.83;;;4.50;1.00;;;;;;5106903;28;20209;-77
2024/03/01 04:29:02;;;;;;;31.80;15.60;;;4.40;1.00;;;;;;5098738;28;20236;-77
2024/03/01 04:31:30;;;;;;;33.93;15.60;;;4.30;1.00;;;;;;5103469;28;20254;-77
2024/03/01 04:33:57;;;;;;;35.10;16.73;;;4.30;1.00;;;;;;5095686;28;20264;-77
2024/03/01 04:36:24;;;;;;;34.40;17.23;;;4.20;1.00;;;;;;5098881;28;20212;-77
2024/03/01 04:38:50;;;;;;;36.57;16.73;;;4.30;60.80;;;;;;5096665;28;20265;-77
2024/03/01 04:41:19;;;;;;;33.07;16.50;;;4.50;1.00;;;;;;5095479;28;20198;-77
2024/03/01 04:43:46;;;;;;;31.53;15.93;;;4.50;1.00;;;;;;5094535;28;20209;-77
2024/03/01 04:46:13;;;;;;;34.60;17.77;;;4.60;1.00;;;;;;5095623;28;20641;-77
2024/03/01 04:48:40;;;;;;;34.40;17.07;;;4.70;1.00;;;;;;5095925;28;20716;-77
2024/03/01 04:51:09;;;;;;;33.60;15.83;;;4.60;1.00;;;;;;5097921;28;20217;-77
2024/03/01 04:53:36;;;;;;;33.90;16.00;;;4.60;1.00;;;;;;5099703;28;20228;-77
2024/03/01 04:56:03;;;;;;;34.33;16.90;;;4.50;1.00;;;;;;5096308;28;20870;-77
2024/03/01 04:58:31;;;;;;;32.93;16.17;;;4.50;1.00;;;;;;5098976;28;20284;-77
2024/03/01 05:01:00;;;;;;;32.50;16.07;;;4.30;1.00;;;;;;5098973;28;20323;-77
2024/03/01 05:03:28;;;;;;;30.23;14.93;;;4.20;1.00;;;;;;5095801;28;20190;-77
2024/03/01 05:05:56;;;;;;;33.97;17.00;;;4.00;1.00;;;;;;5100617;28;20204;-77
2024/03/01 05:08:23;;;;;;;34.80;16.47;;;4.30;1.00;;;;;;5096253;28;20204;-77
2024/03/01 05:10:50;;;;;;;34.47;16.53;;;4.30;99.90;;;;;;5096724;28;20734;-77
2024/03/01 05:13:18;;;;;;;35.80;17.90;;;4.40;99.90;;;;;;5095574;28;20228;-77
2024/03/01 05:15:46;;;;;;;32.83;16.53;;;4.50;99.90;;;;;;5107609;28;20208;-77
2024/03/01 05:18:13;;;;;;;37.80;16.80;;;4.80;14.80;;;;;;5096825;28;21140;-78
2024/03/01 05:20:41;;;;;;;33.30;16.97;;;4.70;1.00;;;;;;5106408;28;20753;-77
2024/03/01 05:23:08;;;;;;;33.83;17.37;;;4.60;1.00;;;;;;5111566;28;20193;-77
2024/03/01 05:25:35;;;;;;;34.57;16.90;;;4.50;1.00;;;;;;5106071;28;20197;-78
2024/03/01 05:28:02;;;;;;;32.93;16.80;;;4.30;1.00;;;;;;5113576;28;20292;-77
2024/03/01 05:30:31;;;;;;;33.37;16.73;;;4.30;19.50;;;;;;5097189;28;20284;-77
2024/03/01 05:32:59;;;;;;;33.83;16.50;;;4.40;99.90;;;;;;5096145;28;20225;-77
2024/03/01 05:35:26;;;;;;;34.20;16.63;;;4.40;99.90;;;;;;5101931;28;20201;-77
2024/03/01 05:37:56;;;;;;;34.23;17.30;;;4.20;99.90;;;;;;5095154;28;20236;-77
2024/03/01 05:40:24;;;;;;;35.93;17.00;;;4.50;99.90;;;;;;5095413;28;20242;-77
2024/03/01 05:42:51;;;;;;;38.27;17.60;;;4.50;99.90;;;;;;5096665;28;20676;-77
2024/03/01 05:45:20;;;;;;;33.80;16.77;;;4.80;99.90;;;;;;5094830;28;20285;-77
2024/03/01 05:47:47;;;;;;;31.83;16.57;;;4.90;1.00;;;;;;5103196;28;20206;-77
2024/03/01 05:50:16;;;;;;;37.10;18.57;;;5.10;1.00;;;;;;5100427;28;20218;-77
2024/03/01 05:52:44;;;;;;;33.53;17.37;;;5.00;1.00;;;;;;5101076;28;20292;-77
2024/03/01 05:55:13;;;;;;;35.33;17.27;;;4.90;1.00;;;;;;5100607;28;20232;-77
2024/03/01 05:57:40;;;;;;;37.47;18.60;;;5.00;1.00;;;;;;5102685;28;20197;-77
2024/03/01 06:00:17;;;;;;;35.53;18.40;;;5.10;1.00;;;;;;5103249;28;20230;-77
2024/03/01 06:02:45;;;;;;;37.83;16.87;;;5.30;1.00;;;;;;5099227;28;20731;-77
2024/03/01 06:05:12;;;;;;;36.03;18.03;;;5.30;1.00;;;;;;5098709;28;20205;-77
2024/03/01 06:07:40;;;;;;;35.33;17.10;;;5.20;1.00;;;;;;5099400;28;20288;-77
2024/03/01 06:10:08;;;;;;;36.63;19.37;;;5.10;1.00;;;;;;5100976;28;20320;-77
2024/03/01 06:12:35;;;;;;;34.43;17.50;;;5.10;1.00;;;;;;5098889;28;20244;-76
2024/03/01 06:15:02;;;;;;;40.77;18.87;;;5.30;1.00;;;;;;5102926;28;20653;-77
2024/03/01 06:17:28;;;;;;;36.77;18.47;;;5.20;1.00;;;;;;5104902;28;20231;-76
2024/03/01 06:19:56;;;;;;;36.70;17.37;;;5.20;1.00;;;;;;5105018;28;20281;-77
2024/03/01 06:22:23;;;;;;;35.67;18.10;;;5.10;1.00;;;;;;5100071;28;20198;-77
2024/03/01 06:24:51;;;;;;;35.27;18.00;;;5.20;1.00;;;;;;5112533;28;20269;-77
2024/03/01 06:27:18;;;;;;;36.10;16.63;;;5.00;1.00;;;;;;5114243;27;20650;-77
2024/03/01 06:29:44;;;;;;;40.40;20.03;;;5.00;1.00;;;;;;5099005;28;20308;-77
2024/03/01 06:32:11;;;;;;;34.20;18.13;;;5.10;1.00;;;;;;5098555;28;20225;-76
2024/03/01 06:34:38;;;;;;;42.37;18.47;;;5.10;1.00;;;;;;5104746;28;20260;-77
2024/03/01 06:37:06;;;;;;;36.80;18.53;;;5.20;1.00;;;;;;5099143;28;20208;-77
2024/03/01 06:39:32;;;;;;;37.37;17.57;;;5.20;1.00;;;;;;5105845;28;20224;-77
2024/03/01 06:42:01;;;;;;;36.77;17.60;;;5.20;1.00;;;;;;5099790;28;20233;-76
2024/03/01 06:44:27;;;;;;;35.63;17.23;;;5.20;1.00;;;;;;5099404;28;20209;-76
2024/03/01 06:46:55;;;;;;;36.03;17.70;;;5.20;1.00;;;;;;5099598;28;20284;-77
2024/03/01 06:49:22;;;;;;;36.80;17.23;;;5.20;1.00;;;;;;5101171;28;20217;-76
2024/03/01 06:51:48;;;;;;;36.47;19.50;;;5.50;1.00;;;;;;5099504;28;20641;-78
2024/03/01 06:54:15;;;;;;;36.87;18.70;;;5.50;1.00;;;;;;5106493;28;20281;-79
2024/03/01 06:56:43;;;;;;;39.03;19.23;;;5.60;1.00;;;;;;5107296;28;20193;-79
2024/03/01 06:59:11;;;;;;;37.03;18.60;;;5.60;1.00;;;;;;5104131;28;20229;-79
2024/03/01 07:01:39;;;;;;;42.57;19.93;;;5.70;1.00;;;;;;5111597;28;20229;-79
2024/03/01 07:04:06;;;;;;;37.67;18.20;;;5.70;1.00;;;;;;5104572;28;20217;-79
2024/03/01 07:06:33;;;;;;;35.67;18.33;;;5.80;1.00;;;;;;5105483;28;20232;-78
2024/03/01 07:09:00;;;;;;;39.53;18.77;;;5.80;1.00;;;;;;5104829;28;21022;-79
2024/03/01 07:11:28;;;;;;;35.13;18.17;;;5.70;1.00;;;;;;5109576;28;20198;-78
2024/03/01 07:13:55;;;;;;;44.77;18.67;;;5.90;1.00;;;;;;5111278;28;20218;-79
2024/03/01 07:16:24;;;;;;;36.73;19.07;;;6.10;99.90;;;;;;5114379;28;20293;-79
2024/03/01 07:18:50;;;;;;;36.50;18.77;;;6.10;99.90;;;;;;5109474;28;20198;-79
2024/03/01 07:21:17;;;;;;;36.67;19.30;;;6.30;99.90;;;;;;5107726;27;20228;-79
2024/03/01 07:23:44;;;;;;;37.43;18.40;;;6.40;99.90;;;;;;5105404;28;20221;-79
2024/03/01 07:26:11;;;;;;;38.17;19.37;;;6.30;99.90;;;;;;5113687;28;20206;-79
2024/03/01 07:28:38;;;;;;;34.60;18.40;;;6.50;99.90;;;;;;5108678;28;20209;-79
2024/03/01 07:31:05;;;;;;;31.50;17.30;;;6.50;62.80;;;;;;5108123;28;20304;-79
2024/03/01 07:33:33;;;;;;;34.23;19.40;;;6.70;1.00;;;;;;5113724;28;20941;-76
2024/03/01 07:36:00;;;;;;;36.13;18.97;;;6.90;1.00;;;;;;5095452;28;20682;-76
2024/03/01 07:38:27;;;;;;;36.20;18.13;;;7.20;1.00;;;;;;5095976;28;20233;-77
2024/03/01 07:40:54;;;;;;;32.90;18.40;;;7.40;1.00;;;;;;5095740;28;20214;-76
2024/03/01 07:43:20;;;;;;;34.20;18.70;;;7.90;1.00;;;;;;5096551;28;20322;-76
2024/03/01 07:45:48;;;;;;;32.90;17.83;;;8.90;99.90;;;;;;5096352;28;20289;-77
2024/03/01 07:48:15;;;;;;;35.17;18.93;;;9.20;99.90;;;;;;5097644;28;20198;-77
2024/03/01 07:50:44;;;;;;;30.67;17.40;;;9.00;1.00;;;;;;5098180;28;20221;-77
2024/03/01 07:53:11;;;;;;;31.30;17.20;;;9.20;1.00;;;;;;5098806;28;20208;-77
2024/03/01 07:55:39;;;;;;;32.40;16.50;;;8.40;1.00;;;;;;5100672;28;20798;-77
2024/03/01 07:58:06;;;;;;;34.10;18.33;;;8.10;74.60;;;;;;5097443;28;20197;-77
2024/03/01 08:00:32;;;;;;;32.77;18.63;;;7.90;99.90;;;;;;5097796;28;20790;-76
2024/03/01 08:03:07;;;;;;;33.13;17.77;;;8.00;99.90;;;;;;5100175;28;20298;-77
2024/03/01 08:05:35;;;;;;;31.00;17.60;;;8.40;99.90;;;;;;5108298;28;20189;-79
2024/03/01 08:08:03;;;;;;;30.33;17.40;;;8.40;96.40;;;;;;5106134;28;20208;-79
2024/03/01 08:10:33;;;;;;;31.17;18.37;;;8.90;1.00;;;;;;5106687;28;20231;-77
2024/03/01 08:13:02;;;;;;;29.83;17.40;;;9.70;1.00;;;;;;5099211;27;20209;-76
2024/03/01 08:15:35;;;;;;;28.90;16.10;;;10.00;1.00;;;;;;5108004;28;20623;-76
2024/03/01 08:18:14;;;;;;;31.13;16.87;;;9.50;1.00;;;;;;5099405;28;20201;-76
2024/03/01 08:20:56;;;;;;;29.00;17.03;;;9.60;1.00;;;;;;5105951;28;20223;-76
2024/03/01 08:23:26;;;;;;;28.97;16.33;;;9.20;1.00;;;;;;5101300;28;20189;-76
2024/03/01 08:25:53;;;;;;;31.50;17.77;;;9.10;1.00;;;;;;5097274;28;20198;-76
2024/03/01 08:28:23;;;;;;;28.93;16.10;;;9.60;1.00;;;;;;5098966;28;20205;-76
2024/03/01 08:30:49;;;;;;;30.73;17.57;;;9.80;1.00;;;;;;5096051;28;20296;-76
2024/03/01 08:33:18;;;;;;;28.60;16.00;;;10.00;1.00;;;;;;5104131;28;20638;-77
2024/03/01 08:35:45;;;;;;;30.00;16.77;;;10.70;1.00;;;;;;5096218;28;20218;-77
2024/03/01 08:38:58;;;;;;;28.90;16.13;;;11.20;1.00;;;;;;5103016;28;20259;-76
2024/03/01 08:41:26;;;;;;;29.30;16.57;;;12.30;1.00;;;;;;5096731;28;20201;-77
2024/03/01 08:43:54;;;;;;;30.90;17.03;;;11.30;99.90;;;;;;5095195;28;20752;-77
2024/03/01 08:46:27;;;;;;;27.53;15.70;;;11.90;99.90;;;;;;5104852;28;20563;-76
2024/03/01 08:48:54;;;;;;;28.23;16.00;;;11.80;99.90;;;;;;5097998;28;20198;-76
2024/03/01 08:51:23;;;;;;;30.83;16.63;;;10.90;99.90;;;;;;5098562;28;20690;-77
2024/03/01 08:53:59;;;;;;;30.97;16.80;;;10.90;99.90;;;;;;5099120;28;20288;-77
2024/03/01 08:56:35;;;;;;;32.53;17.20;;;11.00;99.90;;;;;;5099341;28;20198;-77
2024/03/01 08:59:08;;;;;;;32.23;17.00;;;11.00;99.90;;;;;;5097352;28;20204;-77
2024/03/01 09:01:56;;;;;;;30.07;16.20;;;11.50;99.90;;;;;;5099224;28;20201;-76
2024/03/01 09:04:28;;;;;;;28.50;16.57;;;10.70;99.90;;;;;;5097552;28;20280;-76
2024/03/01 09:07:09;;;;;;;27.70;15.80;;;10.40;99.90;;;;;;5099167;28;20644;-77
2024/03/01 09:09:39;;;;;;;32.93;16.80;;;10.30;1.00;;;;;;5100685;28;20252;-76
2024/03/01 09:12:12;;;;;;;29.80;16.67;;;10.40;99.90;;;;;;5098848;28;20218;-76
2024/03/01 09:14:40;;;;;;;28.47;16.17;;;10.60;99.90;;;;;;5100813;28;20213;-76
2024/03/01 09:17:12;;;;;;;28.27;16.33;;;10.70;99.90;;;;;;5098390;28;20707;-76
2024/03/01 09:19:41;;;;;;;28.20;16.17;;;11.00;99.90;;;;;;5101839;28;20232;-77
2024/03/01 09:22:08;;;;;;;27.63;16.17;;;11.30;99.90;;;;;;5101265;28;20284;-77
2024/03/01 09:24:38;;;;;;;30.60;17.07;;;11.40;99.90;;;;;;5102591;28;20261;-76
2024/03/01 09:27:24;;;;;;;27.33;15.53;;;11.70;99.90;;;;;;5103563;28;20644;-76
2024/03/01 09:29:51;;;;;;;27.63;15.50;;;11.80;99.90;;;;;;5096446;28;20307;-77
2024/03/01 09:32:18;;;;;;;24.57;14.40;;;11.70;99.90;;;;;;5096118;28;20269;-77
2024/03/01 09:34:45;;;;;;;27.93;15.40;;;11.70;99.90;;;;;;5093507;28;20222;-76
2024/03/01 09:37:14;;;;;;;25.80;14.43;;;11.50;99.90;;;;;;5094346;28;20198;-76
2024/03/01 09:39:42;;;;;;;26.53;15.40;;;11.50;99.90;;;;;;5094020;28;20224;-76
2024/03/01 09:42:45;;;;;;;25.80;15.53;;;11.80;99.90;;;;;;5093293;28;20297;-76
2024/03/01 09:45:40;;;;;;;28.47;15.00;;;12.10;99.90;;;;;;5102233;28;20641;-76
2024/03/01 09:48:15;;;;;;;28.93;16.53;;;12.40;99.90;;;;;;5098053;28;20221;-76
2024/03/01 09:50:55;;;;;;;26.80;16.60;;;12.10;99.90;;;;;;5096236;28;20308;-77
2024/03/01 09:53:36;;;;;;;26.50;14.80;;;12.10;99.90;;;;;;5100686;28;20212;-77
2024/03/01 09:56:14;;;;;;;29.20;15.30;;;12.40;99.90;;;;;;5099509;28;20620;-77
2024/03/01 09:58:49;;;;;;;26.57;14.93;;;12.30;99.90;;;;;;5098879;28;20296;-76
2024/03/01 10:01:21;;;;;;;27.10;15.40;;;12.20;99.90;;;;;;5101148;28;20334;-77
2024/03/01 10:04:04;;;;;;;25.00;14.03;;;12.10;99.90;;;;;;5098671;28;20236;-76
2024/03/01 10:06:57;;;;;;;27.20;14.43;;;12.20;99.90;;;;;;5101412;28;20296;-76
2024/03/01 10:09:40;;;;;;;23.13;13.60;;;12.30;99.90;;;;;;5103101;28;20224;-77
2024/03/01 10:12:13;;;;;;;25.00;13.67;;;12.50;99.90;;;;;;5098936;28;20296;-77
2024/03/01 10:14:55;;;;;;;25.73;14.47;;;12.50;99.90;;;;;;5104355;28;20762;-76
2024/03/01 10:17:33;;;;;;;23.43;14.23;;;13.00;99.90;;;;;;5103862;28;20284;-77
2024/03/01 10:20:16;;;;;;;25.47;14.23;;;12.80;99.90;;;;;;5108231;28;20217;-77
2024/03/01 10:22:57;;;;;;;22.07;12.70;;;12.70;99.90;;;;;;5098376;28;20200;-77
2024/03/01 10:25:38;;;;;;;24.70;13.47;;;12.60;99.90;;;;;;5102755;28;20297;-77
2024/03/01 10:28:15;;;;;;;22.90;13.63;;;12.20;99.90;;;;;;5099572;28;20193;-77
2024/03/01 10:30:59;;;;;;;24.80;14.10;;;12.20;99.90;;;;;;5099839;28;20691;-77
2024/03/01 10:33:40;;;;;;;25.97;14.43;;;12.20;99.90;;;;;;5102765;28;20271;-77
2024/03/01 10:36:13;;;;;;;24.53;14.20;;;12.00;99.90;;;;;;5099643;28;20304;-77
2024/03/01 10:38:52;;;;;;;25.80;14.53;;;12.50;99.90;;;;;;5099591;28;20569;-77
2024/03/01 10:41:25;;;;;;;26.03;15.03;;;12.60;99.90;;;;;;5102540;28;20228;-77
2024/03/01 10:44:01;;;;;;;25.97;15.27;;;12.80;99.90;;;;;;5103739;28;20244;-77
2024/03/01 10:46:37;;;;;;;24.60;14.40;;;12.90;99.90;;;;;;5096630;28;20254;-77
2024/03/01 10:49:12;;;;;;;25.00;14.13;;;12.70;99.90;;;;;;5099958;28;20719;-77
2024/03/01 10:51:42;;;;;;;24.67;14.30;;;13.30;99.90;;;;;;5104768;28;20698;-76
2024/03/01 10:54:13;;;;;;;24.97;14.63;;;13.30;35.10;;;;;;5098191;28;20293;-76
2024/03/01 10:56:40;;;;;;;25.63;15.30;;;13.40;31.40;;;;;;5100316;28;20304;-78
2024/03/01 10:59:14;;;;;;;24.07;14.30;;;13.90;1.00;;;;;;5107717;28;20284;-77
2024/03/01 11:01:50;;;;;;;25.47;14.70;;;13.90;1.00;;;;;;5103298;28;20272;-77
2024/03/01 11:04:28;;;;;;;24.30;14.07;;;13.60;1.00;;;;;;5104880;28;20193;-78
2024/03/01 11:07:02;;;;;;;27.13;15.17;;;13.80;1.00;;;;;;5104046;28;20201;-77
2024/03/01 11:09:37;;;;;;;22.00;13.93;;;13.60;1.00;;;;;;5105055;28;20678;-78
2024/03/01 11:12:10;;;;;;;22.23;13.40;;;13.30;1.00;;;;;;5103669;28;20311;-77
2024/03/01 11:14:46;;;;;;;24.27;14.43;;;13.60;1.00;;;;;;5102421;28;20197;-78
2024/03/01 11:17:13;;;;;;;23.90;13.90;;;14.00;1.00;;;;;;5103458;28;20292;-78
2024/03/01 11:19:46;;;;;;;20.87;12.30;;;14.20;1.00;;;;;;5106922;28;20303;-77
2024/03/01 11:22:24;;;;;;;20.48;11.57;;;13.80;1.00;;;;;;5105177;28;20264;-77
2024/03/01 11:25:00;;;;;;;19.40;11.15;;;13.70;1.00;;;;;;5108661;28;20287;-76
2024/03/01 11:27:29;;;;;;;19.25;10.40;;;13.30;1.00;;;;;;5108751;28;20658;-77
2024/03/01 11:30:06;;;;;;;20.05;11.35;;;13.30;1.00;;;;;;5109906;28;20308;-78
2024/03/01 11:32:36;;;;;;;19.33;11.27;;;13.40;1.00;;;;;;5099489;28;20271;-76
2024/03/01 11:35:11;;;;;;;19.43;11.33;;;13.60;1.00;;;;;;5095044;28;20747;-78
2024/03/01 11:37:45;;;;;;;19.65;10.88;;;13.70;1.00;;;;;;5097994;28;20288;-77
2024/03/01 11:40:20;;;;;;;21.13;11.73;;;13.50;1.00;;;;;;5099585;28;20307;-78
2024/03/01 11:43:07;;;;;;;19.40;10.47;;;13.40;1.00;;;;;;5100189;28;20204;-80
2024/03/01 11:45:48;;;;;;;20.93;12.10;;;13.30;1.00;;;;;;5101023;28;20603;-79
2024/03/01 11:48:27;;;;;;;19.63;11.73;;;13.50;1.00;;;;;;5097903;28;20288;-80
2024/03/01 11:51:10;;;;;;;18.70;10.60;;;14.00;1.00;;;;;;5100422;28;20312;-79
2024/03/01 11:54:05;;;;;;;18.63;10.63;;;13.80;1.00;;;;;;5097691;28;20197;-80
2024/03/01 11:56:46;;;;;;;15.43;8.97;;;13.20;1.00;;;;;;5101967;28;20343;-79
2024/03/01 11:59:23;;;;;;;18.10;10.77;;;12.90;1.00;;;;;;5100867;28;20304;-78
2024/03/01 12:01:58;;;;;;;19.77;10.57;;;12.70;1.00;;;;;;5102277;28;20686;-78
2024/03/01 12:04:47;;;;;;;16.23;9.43;;;12.80;16.20;;;;;;5102462;28;20280;-78
2024/03/01 12:07:39;;;;;;;18.77;9.90;;;13.20;10.90;;;;;;5102898;28;20288;-78
2024/03/01 12:10:18;;;;;;;15.30;8.87;;;13.80;1.00;;;;;;5101349;28;20227;-78
2024/03/01 12:12:49;;;;;;;16.77;9.47;;;13.80;1.00;;;;;;5103847;28;20204;-79
2024/03/01 12:15:21;;;;;;;16.23;9.83;;;14.30;1.00;;;;;;5105246;28;20264;-79
2024/03/01 12:18:02;;;;;;;15.32;9.10;;;14.30;1.00;;;;;;5109044;28;20205;-79
2024/03/01 12:20:31;;;;;;;15.97;8.80;;;14.20;1.00;;;;;;5107091;28;20722;-78
2024/03/01 12:23:14;;;;;;;15.32;9.02;;;14.50;1.00;;;;;;5109400;28;20659;-79
2024/03/01 12:25:41;;;;;;;12.45;7.93;;;14.60;1.00;;;;;;5105206;28;20197;-79
2024/03/01 12:28:32;;;;;;;14.90;8.43;;;14.70;1.00;;;;;;5110016;28;20288;-78
2024/03/01 12:31:07;;;;;;;14.97;8.70;;;14.80;1.00;;;;;;5104783;28;20228;-78
2024/03/01 12:33:54;;;;;;;15.85;9.02;;;14.50;1.00;;;;;;5105489;28;20199;-78
2024/03/01 12:36:31;;;;;;;14.40;8.23;;;14.80;1.00;;;;;;5094776;28;20241;-78
2024/03/01 12:39:03;;;;;;;12.13;7.60;;;14.60;1.00;;;;;;5098618;28;20230;-78
2024/03/01 12:41:42;;;;;;;14.10;8.27;;;14.10;1.00;;;;;;5097621;28;20205;-78
2024/03/01 12:44:19;;;;;;;14.43;7.88;;;13.50;1.00;;;;;;5098574;28;20204;-78
2024/03/01 12:47:15;;;;;;;13.40;7.97;;;13.30;1.00;;;;;;5098890;28;20204;-78
2024/03/01 12:49:55;;;;;;;15.43;8.38;;;13.20;1.00;;;;;;5091062;28;20312;-79
2024/03/01 12:52:39;;;;;;;14.70;8.50;;;13.40;1.00;;;;;;5100689;28;20281;-79
2024/03/01 12:55:15;;;;;;;14.13;8.53;;;13.30;1.00;;;;;;5100357;28;20652;-78
2024/03/01 12:58:04;;;;;;;15.00;8.10;;;13.30;1.00;;;;;;5099812;28;20200;-78